Time;durP1;ratioP1;P1;durP2;ratioP2;P2;SDS_P1;SDS_P2;PMS_P1;PMS_P2;Temp;Humidity;BMP_temperature;BMP_pressure;BME280_temperature;BME280_humidity;BME280_pressure;Samples;Min_cycle;Max_cycle;Signal;HPM_P1;HPM_P2
2021/08/12 00:00:40;;;;;;;7.17;4.20;;;;;;;;;;4984528;28;20236;-85
2021/08/12 00:03:45;;;;;;;9.33;4.67;;;;;;;;;;4989627;28;20193;-85
2021/08/12 00:06:49;;;;;;;9.30;4.40;;;;;;;;;;4993927;28;20647;-85
2021/08/12 00:09:53;;;;;;;6.37;4.90;;;;;;;;;;4963329;28;20186;-85
2021/08/12 00:12:57;;;;;;;7.13;4.53;;;;;;;;;;4974597;28;20194;-85
2021/08/12 00:16:03;;;;;;;8.77;4.50;;;;;;;;;;4984985;28;20533;-86
2021/08/12 00:19:14;;;;;;;7.40;4.83;;;;;;;;;;4973894;28;20233;-85
2021/08/12 00:22:18;;;;;;;6.90;4.70;;;;;;;;;;4985629;28;20194;-85
2021/08/12 00:25:22;;;;;;;8.27;4.67;;;;;;;;;;4985161;28;20194;-85
2021/08/12 00:28:31;;;;;;;6.37;4.93;;;;;;;;;;4960071;28;20214;-85
2021/08/12 00:31:36;;;;;;;7.23;4.50;;;;;;;;;;4974581;28;20194;-85
2021/08/12 00:34:40;;;;;;;9.40;4.63;;;;;;;;;;4972582;28;20186;-85
2021/08/12 00:37:44;;;;;;;6.63;4.83;;;;;;;;;;4996192;28;20225;-85
2021/08/12 00:40:48;;;;;;;6.83;5.10;;;;;;;;;;4993303;28;20214;-85
2021/08/12 00:43:53;;;;;;;9.90;5.33;;;;;;;;;;4968300;28;20187;-85
2021/08/12 00:46:59;;;;;;;12.00;5.17;;;;;;;;;;4983641;28;20190;-85
2021/08/12 00:50:09;;;;;;;5.93;5.10;;;;;;;;;;5007575;28;20194;-85
2021/08/12 00:53:13;;;;;;;5.47;4.77;;;;;;;;;;4974031;28;20194;-85
2021/08/12 00:56:20;;;;;;;8.20;5.43;;;;;;;;;;4996133;28;20183;-85
2021/08/12 00:59:27;;;;;;;6.17;4.70;;;;;;;;;;4972758;28;20696;-85
2021/08/12 01:02:33;;;;;;;6.90;5.03;;;;;;;;;;4984910;28;20285;-85
2021/08/12 01:05:46;;;;;;;9.00;5.00;;;;;;;;;;4985391;28;20518;-85
2021/08/12 01:09:00;;;;;;;7.80;4.47;;;;;;;;;;4984246;28;20225;-85
2021/08/12 01:12:10;;;;;;;6.20;4.40;;;;;;;;;;4984666;28;20190;-85
2021/08/12 01:15:22;;;;;;;6.43;4.67;;;;;;;;;;4996150;28;20190;-85
2021/08/12 01:18:51;;;;;;;6.90;4.27;;;;;;;;;;4963570;28;20214;-85
2021/08/12 01:22:02;;;;;;;10.37;5.17;;;;;;;;;;4985562;28;20542;-85
2021/08/12 01:25:26;;;;;;;6.53;5.03;;;;;;;;;;4995535;28;20205;-85
2021/08/12 01:28:42;;;;;;;5.57;4.60;;;;;;;;;;4984324;28;20225;-85
2021/08/12 01:32:07;;;;;;;6.23;4.83;;;;;;;;;;4982413;28;20194;-85
2021/08/12 01:35:17;;;;;;;6.30;5.23;;;;;;;;;;4983948;28;20190;-85
2021/08/12 01:38:25;;;;;;;6.73;4.93;;;;;;;;;;4983996;28;20225;-85
2021/08/12 01:41:31;;;;;;;10.03;5.20;;;;;;;;;;4970261;28;20210;-85
2021/08/12 01:44:38;;;;;;;8.97;4.90;;;;;;;;;;4973122;28;20214;-85
2021/08/12 01:47:48;;;;;;;8.97;5.37;;;;;;;;;;4995405;28;20225;-85
2021/08/12 01:50:55;;;;;;;16.83;5.00;;;;;;;;;;4972892;28;20656;-85
2021/08/12 01:54:01;;;;;;;10.70;5.23;;;;;;;;;;4983897;28;20182;-85
2021/08/12 01:57:05;;;;;;;8.90;5.20;;;;;;;;;;4994748;28;20574;-85
2021/08/12 02:00:11;;;;;;;7.97;4.90;;;;;;;;;;5005989;28;20218;-85
2021/08/12 02:03:21;;;;;;;6.30;4.87;;;;;;;;;;4983844;28;20527;-85
2021/08/12 02:06:33;;;;;;;6.27;4.73;;;;;;;;;;4983808;28;20202;-85
2021/08/12 02:09:38;;;;;;;7.27;4.90;;;;;;;;;;4983385;28;20225;-85
2021/08/12 02:12:44;;;;;;;5.83;4.90;;;;;;;;;;4973166;28;20182;-85
2021/08/12 02:15:48;;;;;;;8.53;4.80;;;;;;;;;;4983475;28;20530;-85
2021/08/12 02:18:53;;;;;;;5.50;4.50;;;;;;;;;;4953544;28;20226;-85
2021/08/12 02:22:01;;;;;;;7.57;5.00;;;;;;;;;;4995010;28;20190;-86
2021/08/12 02:25:11;;;;;;;6.53;4.90;;;;;;;;;;4972757;28;20194;-85
2021/08/12 02:28:17;;;;;;;9.67;4.67;;;;;;;;;;4970863;28;20700;-85
2021/08/12 02:31:24;;;;;;;9.03;4.93;;;;;;;;;;4972447;28;20179;-85
2021/08/12 02:34:30;;;;;;;5.80;4.80;;;;;;;;;;4983474;28;20197;-85
2021/08/12 02:37:36;;;;;;;5.93;4.30;;;;;;;;;;4971743;28;20194;-85
2021/08/12 02:40:42;;;;;;;7.97;5.00;;;;;;;;;;4982747;28;20696;-85
2021/08/12 02:43:47;;;;;;;10.20;5.47;;;;;;;;;;4982630;28;20206;-85
2021/08/12 02:46:53;;;;;;;9.77;5.17;;;;;;;;;;4968645;28;20190;-85
2021/08/12 02:50:00;;;;;;;6.63;5.10;;;;;;;;;;4982774;28;20190;-85
2021/08/12 02:53:05;;;;;;;6.50;4.70;;;;;;;;;;4952737;28;20182;-85
2021/08/12 02:56:11;;;;;;;6.83;5.63;;;;;;;;;;4981931;28;20198;-85
2021/08/12 02:59:16;;;;;;;8.90;5.40;;;;;;;;;;4993595;28;20234;-85
2021/08/12 03:02:22;;;;;;;6.80;5.13;;;;;;;;;;4970901;28;20194;-85
2021/08/12 03:05:27;;;;;;;8.23;5.07;;;;;;;;;;4994608;28;20186;-85
2021/08/12 03:08:32;;;;;;;9.20;5.70;;;;;;;;;;4971365;28;20229;-85
2021/08/12 03:11:38;;;;;;;8.60;4.97;;;;;;;;;;4993591;28;20546;-85
2021/08/12 03:14:43;;;;;;;6.93;5.47;;;;;;;;;;4993382;28;20206;-85
2021/08/12 03:17:48;;;;;;;6.83;5.20;;;;;;;;;;4982271;28;20214;-86
2021/08/12 03:20:52;;;;;;;5.57;4.90;;;;;;;;;;4974223;28;20206;-85
2021/08/12 03:24:01;;;;;;;6.00;4.73;;;;;;;;;;4964262;28;20622;-85
2021/08/12 03:27:10;;;;;;;8.07;4.83;;;;;;;;;;4982997;28;20194;-85
2021/08/12 03:30:15;;;;;;;8.03;5.60;;;;;;;;;;4971080;28;20190;-85
2021/08/12 03:33:20;;;;;;;7.80;5.07;;;;;;;;;;4971933;28;20190;-85
2021/08/12 03:36:24;;;;;;;7.03;5.43;;;;;;;;;;4974084;28;20186;-85
2021/08/12 03:39:29;;;;;;;6.67;5.10;;;;;;;;;;4981715;28;20221;-85
2021/08/12 03:42:33;;;;;;;8.30;5.50;;;;;;;;;;4960177;28;20194;-85
2021/08/12 03:45:37;;;;;;;5.70;4.97;;;;;;;;;;4992654;28;20202;-85
2021/08/12 03:48:41;;;;;;;7.60;5.20;;;;;;;;;;4993475;28;20214;-85
2021/08/12 03:51:45;;;;;;;7.60;5.07;;;;;;;;;;4960238;28;20181;-85
2021/08/12 03:54:49;;;;;;;6.27;5.03;;;;;;;;;;4993575;28;20194;-85
2021/08/12 03:57:53;;;;;;;8.77;5.33;;;;;;;;;;4962729;28;20237;-85
2021/08/12 04:00:59;;;;;;;7.33;4.73;;;;;;;;;;4967239;28;20558;-85
2021/08/12 04:04:04;;;;;;;7.13;6.00;;;;;;;;;;4969843;28;20190;-85
2021/08/12 04:07:09;;;;;;;8.73;5.60;;;;;;;;;;4970737;28;20190;-85
2021/08/12 04:10:14;;;;;;;6.50;4.97;;;;;;;;;;4982633;28;20186;-85
2021/08/12 04:13:18;;;;;;;5.90;5.30;;;;;;;;;;4982497;28;20190;-85
2021/08/12 04:16:22;;;;;;;6.27;4.93;;;;;;;;;;4962961;28;20638;-86
2021/08/12 04:19:27;;;;;;;7.93;5.00;;;;;;;;;;4952110;28;20222;-85
2021/08/12 04:22:31;;;;;;;9.30;5.73;;;;;;;;;;4974345;28;20187;-85
2021/08/12 04:25:35;;;;;;;9.37;5.37;;;;;;;;;;4951759;28;20190;-86
2021/08/12 04:28:39;;;;;;;7.20;5.30;;;;;;;;;;4952041;28;20574;-85
2021/08/12 04:31:43;;;;;;;5.53;4.73;;;;;;;;;;4974653;28;20630;-85
2021/08/12 04:34:47;;;;;;;5.50;4.70;;;;;;;;;;4981374;28;20198;-85
2021/08/12 04:37:52;;;;;;;7.40;4.30;;;;;;;;;;4962603;28;20222;-88
2021/08/12 04:40:56;;;;;;;7.43;4.70;;;;;;;;;;4951710;28;20215;-85
2021/08/12 04:44:01;;;;;;;7.27;4.60;;;;;;;;;;4979066;28;20198;-84
2021/08/12 04:47:05;;;;;;;6.63;4.93;;;;;;;;;;4981666;28;20198;-84
2021/08/12 04:50:11;;;;;;;6.60;4.60;;;;;;;;;;4971130;28;20202;-84
2021/08/12 04:53:15;;;;;;;7.50;4.70;;;;;;;;;;4985016;28;20190;-84
2021/08/12 04:56:19;;;;;;;6.43;4.87;;;;;;;;;;4985733;28;20198;-84
2021/08/12 04:59:23;;;;;;;6.83;4.23;;;;;;;;;;4974002;28;20221;-85
2021/08/12 05:02:28;;;;;;;8.40;4.73;;;;;;;;;;4966844;28;20194;-85
2021/08/12 05:05:33;;;;;;;6.37;5.30;;;;;;;;;;4985188;28;20194;-85
2021/08/12 05:08:37;;;;;;;6.63;5.23;;;;;;;;;;4973382;28;20221;-84
2021/08/12 05:11:41;;;;;;;7.37;4.47;;;;;;;;;;4974165;28;20202;-84
2021/08/12 05:14:46;;;;;;;7.53;5.30;;;;;;;;;;4984598;28;20202;-84
2021/08/12 05:17:50;;;;;;;8.20;5.00;;;;;;;;;;4976887;28;20226;-84
2021/08/12 05:20:54;;;;;;;12.20;5.40;;;;;;;;;;4987166;28;20218;-84
2021/08/12 05:23:59;;;;;;;7.07;4.53;;;;;;;;;;4985409;28;20213;-85
2021/08/12 05:27:05;;;;;;;6.17;4.47;;;;;;;;;;4969292;28;20198;-84
2021/08/12 05:30:11;;;;;;;8.47;4.60;;;;;;;;;;4985027;28;20206;-84
2021/08/12 05:33:36;;;;;;;7.67;4.57;;;;;;;;;;4974444;28;20206;-84
2021/08/12 05:36:41;;;;;;;8.07;4.70;;;;;;;;;;4954710;28;20179;-84
2021/08/12 05:39:45;;;;;;;8.87;5.10;;;;;;;;;;4991492;28;20546;-85
2021/08/12 05:42:49;;;;;;;6.17;5.20;;;;;;;;;;4974543;28;20622;-84
2021/08/12 05:45:54;;;;;;;9.60;5.47;;;;;;;;;;4984976;28;20194;-84
2021/08/12 05:48:59;;;;;;;10.20;5.57;;;;;;;;;;4962743;28;20222;-84
2021/08/12 05:52:03;;;;;;;8.83;5.70;;;;;;;;;;4984999;28;20549;-84
2021/08/12 05:55:08;;;;;;;12.07;5.30;;;;;;;;;;4984681;28;20202;-85
2021/08/12 05:58:12;;;;;;;8.13;5.47;;;;;;;;;;5002425;22;20240;-85
2021/08/12 06:01:16;;;;;;;7.13;4.93;;;;;;;;;;4980957;28;20225;-86
2021/08/12 06:04:20;;;;;;;11.60;5.80;;;;;;;;;;4992468;28;20537;-85
2021/08/12 06:07:25;;;;;;;8.97;5.57;;;;;;;;;;5022558;28;20547;-85
2021/08/12 06:10:30;;;;;;;6.53;5.27;;;;;;;;;;4976814;28;20644;-85
2021/08/12 06:13:34;;;;;;;9.33;5.03;;;;;;;;;;4983302;28;20186;-85
2021/08/12 06:16:42;;;;;;;12.23;5.77;;;;;;;;;;4973406;28;20186;-85
2021/08/12 06:19:46;;;;;;;10.17;5.57;;;;;;;;;;4972636;28;20236;-85
2021/08/12 06:22:52;;;;;;;11.00;5.30;;;;;;;;;;4989847;28;20580;-85
2021/08/12 06:25:58;;;;;;;9.87;6.17;;;;;;;;;;4972331;28;20199;-85
2021/08/12 06:29:02;;;;;;;9.67;5.47;;;;;;;;;;4992191;28;20224;-85
2021/08/12 06:32:07;;;;;;;10.97;5.77;;;;;;;;;;4980665;28;20197;-85
2021/08/12 06:35:12;;;;;;;12.00;6.00;;;;;;;;;;5002481;28;20714;-85
2021/08/12 06:38:16;;;;;;;9.40;5.33;;;;;;;;;;5003425;28;20220;-85
2021/08/12 06:41:20;;;;;;;10.23;6.13;;;;;;;;;;4979931;28;20210;-85
2021/08/12 06:44:32;;;;;;;14.60;6.13;;;;;;;;;;4993069;28;20193;-86
2021/08/12 06:47:37;;;;;;;8.83;5.07;;;;;;;;;;4991724;28;20205;-85
2021/08/12 06:50:43;;;;;;;9.47;5.57;;;;;;;;;;4981755;28;20193;-85
2021/08/12 06:53:48;;;;;;;8.33;5.83;;;;;;;;;;4992479;28;20193;-85
2021/08/12 06:56:53;;;;;;;13.27;5.10;;;;;;;;;;4980660;28;20189;-85
2021/08/12 06:59:57;;;;;;;6.13;5.00;;;;;;;;;;4992331;28;20221;-86
2021/08/12 07:03:02;;;;;;;8.03;4.73;;;;;;;;;;4984149;28;20542;-85
2021/08/12 07:06:07;;;;;;;7.40;4.03;;;;;;;;;;4979337;28;20205;-85
2021/08/12 07:09:11;;;;;;;5.20;4.30;;;;;;;;;;4991056;28;20220;-85
2021/08/12 07:12:15;;;;;;;7.40;4.40;;;;;;;;;;4997998;28;20529;-85
2021/08/12 07:15:19;;;;;;;9.90;4.43;;;;;;;;;;4986699;28;20185;-85
2021/08/12 07:18:24;;;;;;;8.87;4.57;;;;;;;;;;5001958;28;20225;-86
2021/08/12 07:21:28;;;;;;;8.00;4.90;;;;;;;;;;4979992;28;20205;-85
2021/08/12 07:24:36;;;;;;;6.30;4.83;;;;;;;;;;4979928;28;20189;-86
2021/08/12 07:27:41;;;;;;;7.63;4.40;;;;;;;;;;4980115;28;20185;-85
2021/08/12 07:30:46;;;;;;;6.43;4.90;;;;;;;;;;4979748;28;20185;-86
2021/08/12 07:33:50;;;;;;;9.03;4.63;;;;;;;;;;4979242;28;20201;-85
2021/08/12 07:36:54;;;;;;;9.13;5.03;;;;;;;;;;4970860;28;20197;-86
2021/08/12 07:39:58;;;;;;;5.30;4.13;;;;;;;;;;4990463;28;20561;-86
2021/08/12 07:43:02;;;;;;;6.23;4.90;;;;;;;;;;4979398;28;20225;-86
2021/08/12 07:46:06;;;;;;;8.07;4.97;;;;;;;;;;4990398;28;20209;-86
2021/08/12 07:49:10;;;;;;;8.73;4.93;;;;;;;;;;4990028;28;20213;-86
2021/08/12 07:52:15;;;;;;;6.80;4.50;;;;;;;;;;4979797;28;20182;-86
2021/08/12 07:55:20;;;;;;;12.23;4.57;;;;;;;;;;4991262;28;20509;-86
2021/08/12 07:58:24;;;;;;;6.00;4.40;;;;;;;;;;4978867;28;20721;-86
2021/08/12 08:01:28;;;;;;;9.20;5.10;;;;;;;;;;4972406;28;20210;-85
2021/08/12 08:04:32;;;;;;;11.43;4.67;;;;;;;;;;4991142;28;20209;-86
2021/08/12 08:07:36;;;;;;;6.80;4.23;;;;;;;;;;4990409;28;20192;-85
2021/08/12 08:10:40;;;;;;;6.30;4.20;;;;;;;;;;4979527;28;20199;-86
2021/08/12 08:13:45;;;;;;;5.77;3.93;;;;;;;;;;4978365;28;20645;-86
2021/08/12 08:16:49;;;;;;;7.70;4.20;;;;;;;;;;4971913;28;20183;-86
2021/08/12 08:19:53;;;;;;;7.33;3.97;;;;;;;;;;4971495;28;20225;-86
2021/08/12 08:23:03;;;;;;;5.55;4.00;;;;;;;;;;4994729;28;20214;-85
2021/08/12 08:26:07;;;;;;;5.47;3.63;;;;;;;;;;5003179;28;20199;-85
2021/08/12 08:29:11;;;;;;;8.07;4.07;;;;;;;;;;5005172;28;20223;-86
2021/08/12 08:32:16;;;;;;;6.82;4.13;;;;;;;;;;4974628;28;20172;-86
2021/08/12 08:35:20;;;;;;;4.63;4.00;;;;;;;;;;4974546;28;20642;-85
2021/08/12 08:38:25;;;;;;;7.55;4.18;;;;;;;;;;4974489;28;20228;-86
2021/08/12 08:41:29;;;;;;;7.50;3.40;;;;;;;;;;4998559;28;20689;-86
2021/08/12 08:44:38;;;;;;;7.13;4.20;;;;;;;;;;4998980;28;20207;-85
2021/08/12 08:47:45;;;;;;;23.23;5.80;;;;;;;;;;4983099;28;20521;-86
2021/08/12 08:50:49;;;;;;;8.88;3.83;;;;;;;;;;4994737;28;20560;-85
2021/08/12 08:53:54;;;;;;;5.10;4.03;;;;;;;;;;4990026;28;20192;-86
2021/08/12 08:56:58;;;;;;;4.53;4.00;;;;;;;;;;4974094;28;20202;-86
2021/08/12 09:00:03;;;;;;;5.60;3.95;;;;;;;;;;4985060;28;20236;-86
2021/08/12 09:03:08;;;;;;;5.53;3.75;;;;;;;;;;5004342;28;20226;-86
2021/08/12 09:06:13;;;;;;;7.63;3.90;;;;;;;;;;4993061;28;20672;-86
2021/08/12 09:09:18;;;;;;;6.65;3.78;;;;;;;;;;5015173;28;20217;-86
2021/08/12 09:12:23;;;;;;;5.90;3.70;;;;;;;;;;5004024;28;20174;-86
2021/08/12 09:15:38;;;;;;;5.75;4.30;;;;;;;;;;4995206;28;20194;-86
2021/08/12 09:18:42;;;;;;;5.53;3.58;;;;;;;;;;4993371;28;20680;-86
2021/08/12 09:21:47;;;;;;;5.30;3.78;;;;;;;;;;4982126;28;20213;-86
2021/08/12 09:24:51;;;;;;;5.43;4.00;;;;;;;;;;4989575;28;20197;-86
2021/08/12 09:28:12;;;;;;;13.98;4.63;;;;;;;;;;4992320;28;20197;-86
2021/08/12 09:31:16;;;;;;;6.03;4.07;;;;;;;;;;4992957;28;20179;-86
2021/08/12 09:34:22;;;;;;;4.50;3.83;;;;;;;;;;4975636;28;20193;-86
2021/08/12 09:37:30;;;;;;;5.50;3.92;;;;;;;;;;4991730;28;20186;-86
2021/08/12 09:40:35;;;;;;;8.40;4.70;;;;;;;;;;4992114;28;20201;-86
2021/08/12 09:43:39;;;;;;;11.55;4.25;;;;;;;;;;4981465;28;20668;-86
2021/08/12 09:46:54;;;;;;;5.45;3.85;;;;;;;;;;4989047;28;20204;-86
2021/08/12 09:49:59;;;;;;;5.32;3.55;;;;;;;;;;4981233;28;20217;-86
2021/08/12 09:53:05;;;;;;;6.28;3.85;;;;;;;;;;5003491;28;20185;-86
2021/08/12 09:56:11;;;;;;;5.43;3.95;;;;;;;;;;5003259;28;20186;-86
2021/08/12 09:59:15;;;;;;;8.18;3.70;;;;;;;;;;4991376;28;20225;-86
2021/08/12 10:02:19;;;;;;;5.57;4.30;;;;;;;;;;4991507;28;20687;-88
2021/08/12 10:05:24;;;;;;;5.70;4.40;;;;;;;;;;4981291;28;20201;-88
2021/08/12 10:08:37;;;;;;;4.88;3.55;;;;;;;;;;4977565;28;20568;-87
2021/08/12 10:11:41;;;;;;;8.23;3.88;;;;;;;;;;4970602;28;20199;-87
2021/08/12 10:14:45;;;;;;;13.57;4.03;;;;;;;;;;4975024;28;20209;-87
2021/08/12 10:17:53;;;;;;;4.28;3.75;;;;;;;;;;4983299;28;20212;-87
2021/08/12 10:20:58;;;;;;;5.22;4.05;;;;;;;;;;4999789;28;20182;-86
2021/08/12 10:24:03;;;;;;;5.65;4.78;;;;;;;;;;4977094;28;20193;-86
2021/08/12 10:27:07;;;;;;;7.00;4.30;;;;;;;;;;4971314;28;20198;-86
2021/08/12 10:30:11;;;;;;;4.72;3.83;;;;;;;;;;4989447;28;20692;-87
2021/08/12 10:33:16;;;;;;;5.55;4.05;;;;;;;;;;5002599;28;20186;-87
2021/08/12 10:36:21;;;;;;;8.77;4.10;;;;;;;;;;4979974;28;20542;-87
2021/08/12 10:39:26;;;;;;;7.32;4.25;;;;;;;;;;4990669;28;20218;-86
2021/08/12 10:42:31;;;;;;;5.78;4.10;;;;;;;;;;4991761;28;20557;-87
2021/08/12 10:45:35;;;;;;;6.88;3.78;;;;;;;;;;4991596;28;20182;-86
2021/08/12 10:48:39;;;;;;;4.68;3.85;;;;;;;;;;4980351;28;20217;-86
2021/08/12 10:51:57;;;;;;;8.75;4.22;;;;;;;;;;4972145;28;20194;-87
2021/08/12 10:55:17;;;;;;;7.85;4.30;;;;;;;;;;4983300;28;20183;-87
2021/08/12 10:58:28;;;;;;;4.88;4.40;;;;;;;;;;4990464;28;20229;-87
2021/08/12 11:01:36;;;;;;;4.75;4.25;;;;;;;;;;4978749;28;20202;-87
2021/08/12 11:04:53;;;;;;;5.53;4.30;;;;;;;;;;4991128;28;20189;-87
2021/08/12 11:07:57;;;;;;;7.43;4.35;;;;;;;;;;4989097;28;20202;-87
2021/08/12 11:11:01;;;;;;;8.02;4.57;;;;;;;;;;4990528;28;20190;-86
2021/08/12 11:14:11;;;;;;;5.55;4.32;;;;;;;;;;4972466;28;20185;-87
2021/08/12 11:17:15;;;;;;;7.70;4.47;;;;;;;;;;4987879;28;20518;-87
2021/08/12 11:20:40;;;;;;;7.57;4.47;;;;;;;;;;4989832;28;20177;-86
2021/08/12 11:23:47;;;;;;;5.82;4.40;;;;;;;;;;4972437;28;20211;-87
2021/08/12 11:26:51;;;;;;;10.48;4.80;;;;;;;;;;4982938;28;20186;-86
2021/08/12 11:29:55;;;;;;;6.07;4.55;;;;;;;;;;4988204;28;20220;-87
2021/08/12 11:33:25;;;;;;;7.03;4.53;;;;;;;;;;4979687;28;20193;-86
2021/08/12 11:36:35;;;;;;;8.18;5.13;;;;;;;;;;4990629;28;20194;-86
2021/08/12 11:39:45;;;;;;;5.82;4.90;;;;;;;;;;4990357;28;20213;-86
2021/08/12 11:42:54;;;;;;;6.55;4.70;;;;;;;;;;4979207;28;20566;-86
2021/08/12 11:46:00;;;;;;;5.75;4.40;;;;;;;;;;4957633;28;20198;-88
2021/08/12 11:49:05;;;;;;;9.77;4.45;;;;;;;;;;4971044;28;20222;-88
2021/08/12 11:52:10;;;;;;;5.80;4.20;;;;;;;;;;4994521;28;20206;-87
2021/08/12 11:55:17;;;;;;;9.70;4.55;;;;;;;;;;4990421;28;20206;-87
2021/08/12 11:58:25;;;;;;;8.23;4.85;;;;;;;;;;4988072;28;20221;-87
2021/08/12 12:01:32;;;;;;;5.65;5.03;;;;;;;;;;5049605;23;20232;-78
2021/08/12 12:04:38;;;;;;;10.10;4.72;;;;;;;;;;5046603;28;20220;-77
2021/08/12 12:07:53;;;;;;;5.38;4.90;;;;;;;;;;5046715;28;20211;-78
2021/08/12 12:11:12;;;;;;;7.28;5.20;;;;;;;;;;5059324;28;20189;-78
2021/08/12 12:14:25;;;;;;;10.98;5.30;;;;;;;;;;5043309;28;20208;-78
2021/08/12 12:17:33;;;;;;;5.78;4.70;;;;;;;;;;5054751;28;20195;-77
2021/08/12 12:20:46;;;;;;;5.85;5.25;;;;;;;;;;5034154;28;20197;-77
2021/08/12 12:23:51;;;;;;;5.45;4.90;;;;;;;;;;5058107;28;20231;-78
2021/08/12 12:26:57;;;;;;;10.55;5.97;;;;;;;;;;5053379;28;20183;-78
2021/08/12 12:30:19;;;;;;;6.03;4.95;;;;;;;;;;5052428;28;20195;-78
2021/08/12 12:33:25;;;;;;;7.22;5.20;;;;;;;;;;5043162;28;20208;-78
2021/08/12 12:36:31;;;;;;;7.20;5.28;;;;;;;;;;5051522;28;20672;-78
2021/08/12 12:39:35;;;;;;;7.78;4.97;;;;;;;;;;5046820;28;20193;-78
2021/08/12 12:42:39;;;;;;;5.43;4.93;;;;;;;;;;5047453;28;20217;-78
2021/08/12 12:45:43;;;;;;;5.40;4.82;;;;;;;;;;5057809;28;20672;-78
2021/08/12 12:48:47;;;;;;;8.82;5.40;;;;;;;;;;5041742;28;20181;-79
2021/08/12 12:51:51;;;;;;;6.97;5.50;;;;;;;;;;5028160;28;20189;-78
2021/08/12 12:54:58;;;;;;;10.55;5.30;;;;;;;;;;5057750;28;20188;-78
2021/08/12 12:58:16;;;;;;;6.22;5.03;;;;;;;;;;5059410;28;20191;-78
2021/08/12 13:01:21;;;;;;;8.00;5.47;;;;;;;;;;5051115;28;20204;-78
2021/08/12 13:04:26;;;;;;;9.25;5.47;;;;;;;;;;5041647;28;20221;-78
2021/08/12 13:07:30;;;;;;;5.32;4.85;;;;;;;;;;5046267;28;20196;-78
2021/08/12 13:10:34;;;;;;;6.30;4.93;;;;;;;;;;5028283;28;20185;-77
2021/08/12 13:13:39;;;;;;;7.72;5.32;;;;;;;;;;5056353;28;20211;-79
2021/08/12 13:16:49;;;;;;;6.78;4.93;;;;;;;;;;5038379;28;20192;-77
2021/08/12 13:20:10;;;;;;;10.20;5.13;;;;;;;;;;5054333;28;20188;-77
2021/08/12 13:23:15;;;;;;;6.88;5.35;;;;;;;;;;5033886;28;20228;-77
2021/08/12 13:26:31;;;;;;;7.68;5.07;;;;;;;;;;5057451;28;20176;-77
2021/08/12 13:29:39;;;;;;;12.00;5.47;;;;;;;;;;5057609;28;20196;-77
2021/08/12 13:32:43;;;;;;;9.50;5.50;;;;;;;;;;5039932;28;20207;-77
2021/08/12 13:35:48;;;;;;;7.55;5.00;;;;;;;;;;5058188;28;20200;-78
2021/08/12 13:38:52;;;;;;;6.70;6.00;;;;;;;;;;5035431;28;20208;-78
2021/08/12 13:42:00;;;;;;;8.45;5.55;;;;;;;;;;5050624;28;20208;-78
2021/08/12 13:45:04;;;;;;;8.13;6.07;;;;;;;;;;5037684;28;20197;-78
2021/08/12 13:48:08;;;;;;;6.72;5.38;;;;;;;;;;5040525;28;20558;-78
2021/08/12 13:51:12;;;;;;;9.90;5.32;;;;;;;;;;5052235;28;20181;-78
2021/08/12 13:54:17;;;;;;;10.02;5.75;;;;;;;;;;5044132;28;20681;-77
2021/08/12 13:57:22;;;;;;;9.80;5.38;;;;;;;;;;5014291;28;20186;-77
2021/08/12 14:00:26;;;;;;;9.80;5.40;;;;;;;;;;5036837;28;20243;-77
2021/08/12 14:03:30;;;;;;;6.30;5.15;;;;;;;;;;5056922;28;20220;-77
2021/08/12 14:06:35;;;;;;;8.27;5.10;;;;;;;;;;5044485;28;20180;-77
2021/08/12 14:09:40;;;;;;;6.38;5.28;;;;;;;;;;5044432;28;20181;-77
2021/08/12 14:12:44;;;;;;;6.03;5.43;;;;;;;;;;5049339;28;20200;-78
2021/08/12 14:15:49;;;;;;;6.53;5.35;;;;;;;;;;5051210;28;20196;-78
2021/08/12 14:18:53;;;;;;;6.18;5.55;;;;;;;;;;5036775;28;20204;-78
2021/08/12 14:21:57;;;;;;;12.57;5.85;;;;;;;;;;5052583;28;20189;-78
2021/08/12 14:25:02;;;;;;;6.10;5.25;;;;;;;;;;5041725;28;20226;-78
2021/08/12 14:28:06;;;;;;;6.00;4.97;;;;;;;;;;5047298;28;20691;-78
2021/08/12 14:31:10;;;;;;;8.00;5.15;;;;;;;;;;5053314;28;20176;-78
2021/08/12 14:34:15;;;;;;;7.70;5.50;;;;;;;;;;5040049;28;20686;-77
2021/08/12 14:37:19;;;;;;;11.52;5.97;;;;;;;;;;5052447;28;20197;-78
2021/08/12 14:40:26;;;;;;;8.82;5.25;;;;;;;;;;5041121;28;20192;-78
2021/08/12 14:43:31;;;;;;;6.97;5.30;;;;;;;;;;5052631;28;20228;-78
2021/08/12 14:46:35;;;;;;;6.50;5.90;;;;;;;;;;5048914;28;20196;-78
2021/08/12 14:49:39;;;;;;;6.75;5.45;;;;;;;;;;5040480;28;20195;-77
2021/08/12 14:52:43;;;;;;;6.03;5.28;;;;;;;;;;5046537;28;20193;-78
2021/08/12 14:55:49;;;;;;;7.38;5.90;;;;;;;;;;5045967;28;20196;-78
2021/08/12 14:58:54;;;;;;;8.60;5.70;;;;;;;;;;5021820;28;20181;-77
2021/08/12 15:01:58;;;;;;;6.85;5.95;;;;;;;;;;5029222;28;20692;-78
2021/08/12 15:05:03;;;;;;;6.63;5.70;;;;;;;;;;5004034;28;20213;-78
2021/08/12 15:08:08;;;;;;;7.60;5.82;;;;;;;;;;4991787;28;20182;-78
2021/08/12 15:11:16;;;;;;;9.95;6.07;;;;;;;;;;5000989;28;20177;-77
2021/08/12 15:14:20;;;;;;;9.98;5.75;;;;;;;;;;5030310;28;20225;-77
2021/08/12 15:17:24;;;;;;;14.65;5.70;;;;;;;;;;5035415;28;20185;-78
2021/08/12 15:20:28;;;;;;;11.57;5.72;;;;;;;;;;5012286;28;20181;-78
2021/08/12 15:23:33;;;;;;;7.80;6.20;;;;;;;;;;5011862;28;20228;-78
2021/08/12 15:26:38;;;;;;;8.05;5.50;;;;;;;;;;5035508;28;20663;-78
2021/08/12 15:29:42;;;;;;;7.07;5.70;;;;;;;;;;5023521;28;20189;-78
2021/08/12 15:32:45;;;;;;;8.27;6.20;;;;;;;;;;5023407;28;20181;-78
2021/08/12 15:35:49;;;;;;;6.55;5.72;;;;;;;;;;5022925;28;20644;-77
2021/08/12 15:38:53;;;;;;;9.35;5.88;;;;;;;;;;5023320;28;20185;-78
2021/08/12 15:41:59;;;;;;;12.60;5.57;;;;;;;;;;5023429;28;20185;-78
2021/08/12 15:45:11;;;;;;;13.63;6.45;;;;;;;;;;5035000;28;20208;-78
2021/08/12 15:48:17;;;;;;;9.13;5.70;;;;;;;;;;5012786;28;20174;-78
2021/08/12 15:51:21;;;;;;;14.23;6.07;;;;;;;;;;5023305;28;20185;-78
2021/08/12 15:54:27;;;;;;;9.30;5.97;;;;;;;;;;5035128;28;20219;-78
2021/08/12 15:57:32;;;;;;;6.35;5.75;;;;;;;;;;5035383;28;20181;-78
2021/08/12 16:00:36;;;;;;;10.27;5.82;;;;;;;;;;5034496;28;20540;-77
2021/08/12 16:03:41;;;;;;;7.95;6.55;;;;;;;;;;5022863;28;20220;-77
2021/08/12 16:06:45;;;;;;;13.25;6.60;;;;;;;;;;5022794;28;20189;-78
2021/08/12 16:09:50;;;;;;;10.05;6.00;;;;;;;;;;5035324;28;20185;-77
2021/08/12 16:12:54;;;;;;;8.05;5.97;;;;;;;;;;5035050;28;20225;-77
2021/08/12 16:15:57;;;;;;;7.32;5.28;;;;;;;;;;5021759;28;20204;-77
2021/08/12 16:19:05;;;;;;;7.85;6.30;;;;;;;;;;5034338;28;20196;-77
2021/08/12 16:22:09;;;;;;;7.60;5.85;;;;;;;;;;5021739;28;20175;-77
2021/08/12 16:25:13;;;;;;;8.95;5.88;;;;;;;;;;5021536;28;20211;-77
2021/08/12 16:28:17;;;;;;;10.55;7.13;;;;;;;;;;5022251;28;20185;-77
2021/08/12 16:31:21;;;;;;;10.45;6.03;;;;;;;;;;5022033;28;20191;-77
2021/08/12 16:34:25;;;;;;;8.68;6.50;;;;;;;;;;5033731;28;20299;-77
2021/08/12 16:37:29;;;;;;;7.55;6.20;;;;;;;;;;5011576;28;20207;-77
2021/08/12 16:40:33;;;;;;;9.90;6.63;;;;;;;;;;5020954;28;20199;-77
2021/08/12 16:43:37;;;;;;;7.22;6.10;;;;;;;;;;5025689;28;20223;-77
2021/08/12 16:46:41;;;;;;;8.80;6.38;;;;;;;;;;5033163;28;20639;-77
2021/08/12 16:49:45;;;;;;;9.52;6.18;;;;;;;;;;5036161;28;20203;-77
2021/08/12 16:52:50;;;;;;;7.85;6.60;;;;;;;;;;5018074;28;20228;-77
2021/08/12 16:55:54;;;;;;;6.95;6.10;;;;;;;;;;5018799;28;20197;-77
2021/08/12 16:58:58;;;;;;;10.88;6.35;;;;;;;;;;5036819;28;20187;-77
2021/08/12 17:02:02;;;;;;;13.55;6.68;;;;;;;;;;5024229;28;20571;-77
2021/08/12 17:05:07;;;;;;;9.80;6.00;;;;;;;;;;5022727;28;20211;-78
2021/08/12 17:08:11;;;;;;;9.07;5.88;;;;;;;;;;5025082;28;20186;-78
2021/08/12 17:11:15;;;;;;;7.43;5.80;;;;;;;;;;5025854;28;20187;-78
2021/08/12 17:14:19;;;;;;;9.70;6.30;;;;;;;;;;5024609;28;20218;-77
2021/08/12 17:17:23;;;;;;;7.60;6.18;;;;;;;;;;5006158;28;20178;-78
2021/08/12 17:20:28;;;;;;;7.95;5.70;;;;;;;;;;5036862;28;20538;-78
2021/08/12 17:23:33;;;;;;;8.63;6.60;;;;;;;;;;5024954;28;20228;-78
2021/08/12 17:26:37;;;;;;;9.68;6.95;;;;;;;;;;5032926;28;20194;-77
2021/08/12 17:29:41;;;;;;;10.00;5.80;;;;;;;;;;5033756;28;20535;-78
2021/08/12 17:32:45;;;;;;;8.10;5.97;;;;;;;;;;5025394;28;20197;-79
2021/08/12 17:35:49;;;;;;;8.00;6.35;;;;;;;;;;5034947;28;20659;-78
2021/08/12 17:38:53;;;;;;;7.60;5.78;;;;;;;;;;5022463;28;20199;-77
2021/08/12 17:41:57;;;;;;;7.88;6.05;;;;;;;;;;5034373;28;20536;-78
2021/08/12 17:45:02;;;;;;;10.07;6.57;;;;;;;;;;5021735;28;20676;-77
2021/08/12 17:48:07;;;;;;;8.25;6.10;;;;;;;;;;5024675;28;20216;-77
2021/08/12 17:51:11;;;;;;;12.80;6.28;;;;;;;;;;5021897;28;20191;-78
2021/08/12 17:54:15;;;;;;;11.57;6.97;;;;;;;;;;5022294;28;20229;-78
2021/08/12 17:57:19;;;;;;;11.27;6.20;;;;;;;;;;5034929;28;20202;-78
2021/08/12 18:00:23;;;;;;;7.68;6.25;;;;;;;;;;5018899;28;20214;-78
2021/08/12 18:03:28;;;;;;;8.63;7.50;;;;;;;;;;5034331;28;20583;-78
2021/08/12 18:06:33;;;;;;;11.15;7.15;;;;;;;;;;5010545;28;20176;-79
2021/08/12 18:09:40;;;;;;;8.88;6.70;;;;;;;;;;5022199;28;20193;-78
2021/08/12 18:12:44;;;;;;;7.30;6.20;;;;;;;;;;5033684;28;20189;-79
2021/08/12 18:15:49;;;;;;;8.47;7.53;;;;;;;;;;5036495;28;20176;-81
2021/08/12 18:18:54;;;;;;;10.00;7.00;;;;;;;;;;5036126;28;20181;-78
2021/08/12 18:21:58;;;;;;;9.40;6.57;;;;;;;;;;5002959;28;20200;-78
2021/08/12 18:25:03;;;;;;;15.93;7.37;;;;;;;;;;5001538;28;20212;-79
2021/08/12 18:28:07;;;;;;;13.00;7.47;;;;;;;;;;5021118;28;20212;-78
2021/08/12 18:31:12;;;;;;;13.83;7.10;;;;;;;;;;5021214;28;20553;-78